FKYS/NSI METAR and TAF weather

Enter ICAO airport designator
Station Type Date Time Source
FKYS METAR 2018/12/12 16:00 UTC NOAA

FKYS 121600Z /////KT 8000 FEW023 28/22 Q1015 NOSIG


Station Type Date Time Source
FKYS Decoded METAR 2018/12/12 16:00 UTC NOAA

Yaounde, Cameroon (FKYS) 03-50N 011-31E 760M
Dec 12, 2018 - 11:00 AM EST / 2018.12.12 1600 UTC
Visibility: 4 mile(s):0
Sky conditions: mostly clear
Temperature: 82 F (28 C)
Dew Point: 71 F (22 C)
Relative Humidity: 69%
Pressure (altimeter): 29.97 in. Hg (1015 hPa)
ob: FKYS 121600Z /////KT 8000 FEW023 28/22 Q1015 NOSIG
cycle: 16

Station Type Date Time Source
FKYS TAF 2018/12/12 12:15 UTC NOAA

TAF FKYS 121100Z 1212/1312 VRB04KT 8000 BKN020
BECMG 1220/1222 BKN006
TEMPO 1300/1306 3000 BR
BECMG 1306/1310 BKN016


Example: see airport list